sensor_id;sensor_type;location;lat;lon;timestamp;P1;durP1;ratioP1;P2;durP2;ratioP2
67751;SDS011;54551;51.068;5.826;2023-03-14T00:02:08;9.03;;;2.30;;
67751;SDS011;54551;51.068;5.826;2023-03-14T00:04:34;6.80;;;2.20;;
67751;SDS011;54551;51.068;5.826;2023-03-14T00:07:01;8.57;;;2.10;;
67751;SDS011;54551;51.068;5.826;2023-03-14T00:09:27;8.10;;;2.20;;
67751;SDS011;54551;51.068;5.826;2023-03-14T00:11:55;7.67;;;2.23;;
67751;SDS011;54551;51.068;5.826;2023-03-14T00:14:21;6.73;;;1.90;;
67751;SDS011;54551;51.068;5.826;2023-03-14T00:16:47;8.53;;;2.03;;
67751;SDS011;54551;51.068;5.826;2023-03-14T00:19:13;8.97;;;2.20;;
67751;SDS011;54551;51.068;5.826;2023-03-14T00:21:39;7.07;;;1.80;;
67751;SDS011;54551;51.068;5.826;2023-03-14T00:24:05;6.17;;;2.23;;
67751;SDS011;54551;51.068;5.826;2023-03-14T00:26:32;6.63;;;1.83;;
67751;SDS011;54551;51.068;5.826;2023-03-14T00:28:58;5.37;;;1.57;;
67751;SDS011;54551;51.068;5.826;2023-03-14T00:31:23;5.63;;;1.47;;
67751;SDS011;54551;51.068;5.826;2023-03-14T00:33:51;5.40;;;1.80;;
67751;SDS011;54551;51.068;5.826;2023-03-14T00:36:17;6.37;;;1.70;;
67751;SDS011;54551;51.068;5.826;2023-03-14T00:38:46;5.53;;;1.33;;
67751;SDS011;54551;51.068;5.826;2023-03-14T00:41:14;3.77;;;1.73;;
67751;SDS011;54551;51.068;5.826;2023-03-14T00:43:42;4.30;;;1.40;;
67751;SDS011;54551;51.068;5.826;2023-03-14T00:46:08;5.50;;;1.63;;
67751;SDS011;54551;51.068;5.826;2023-03-14T00:48:35;6.50;;;1.80;;
67751;SDS011;54551;51.068;5.826;2023-03-14T00:51:01;5.03;;;1.70;;
67751;SDS011;54551;51.068;5.826;2023-03-14T00:53:28;3.93;;;1.50;;
67751;SDS011;54551;51.068;5.826;2023-03-14T00:55:54;5.67;;;1.83;;
67751;SDS011;54551;51.068;5.826;2023-03-14T00:58:20;6.90;;;1.70;;
67751;SDS011;54551;51.068;5.826;2023-03-14T01:00:46;5.23;;;1.30;;
67751;SDS011;54551;51.068;5.826;2023-03-14T01:03:13;7.97;;;1.60;;
67751;SDS011;54551;51.068;5.826;2023-03-14T01:05:39;6.33;;;1.53;;
67751;SDS011;54551;51.068;5.826;2023-03-14T01:08:06;4.50;;;1.70;;
67751;SDS011;54551;51.068;5.826;2023-03-14T01:10:33;5.97;;;1.40;;
67751;SDS011;54551;51.068;5.826;2023-03-14T01:12:59;3.40;;;1.10;;
67751;SDS011;54551;51.068;5.826;2023-03-14T01:15:27;4.83;;;1.73;;
67751;SDS011;54551;51.068;5.826;2023-03-14T01:17:53;7.37;;;2.03;;
67751;SDS011;54551;51.068;5.826;2023-03-14T01:20:19;5.67;;;2.07;;
67751;SDS011;54551;51.068;5.826;2023-03-14T01:22:45;5.17;;;1.70;;
67751;SDS011;54551;51.068;5.826;2023-03-14T01:25:13;5.57;;;1.93;;
67751;SDS011;54551;51.068;5.826;2023-03-14T01:27:40;5.73;;;1.63;;
67751;SDS011;54551;51.068;5.826;2023-03-14T01:30:08;11.10;;;2.40;;
67751;SDS011;54551;51.068;5.826;2023-03-14T01:32:35;8.27;;;2.43;;
67751;SDS011;54551;51.068;5.826;2023-03-14T01:35:02;7.37;;;2.10;;
67751;SDS011;54551;51.068;5.826;2023-03-14T01:37:28;10.60;;;2.37;;
67751;SDS011;54551;51.068;5.826;2023-03-14T01:39:54;7.23;;;2.60;;
67751;SDS011;54551;51.068;5.826;2023-03-14T01:42:20;8.00;;;2.50;;
67751;SDS011;54551;51.068;5.826;2023-03-14T01:44:47;8.00;;;2.33;;
67751;SDS011;54551;51.068;5.826;2023-03-14T01:47:17;7.50;;;2.23;;
67751;SDS011;54551;51.068;5.826;2023-03-14T01:49:43;8.97;;;2.87;;
67751;SDS011;54551;51.068;5.826;2023-03-14T01:52:13;10.47;;;2.80;;
67751;SDS011;54551;51.068;5.826;2023-03-14T01:54:53;8.77;;;2.27;;
67751;SDS011;54551;51.068;5.826;2023-03-14T01:57:40;9.03;;;2.37;;
67751;SDS011;54551;51.068;5.826;2023-03-14T02:00:15;7.60;;;1.90;;
67751;SDS011;54551;51.068;5.826;2023-03-14T02:02:49;9.07;;;2.50;;
67751;SDS011;54551;51.068;5.826;2023-03-14T02:05:21;8.47;;;2.50;;
67751;SDS011;54551;51.068;5.826;2023-03-14T02:08:02;7.17;;;1.63;;
67751;SDS011;54551;51.068;5.826;2023-03-14T02:10:39;8.50;;;2.70;;
67751;SDS011;54551;51.068;5.826;2023-03-14T02:13:09;11.17;;;2.43;;
67751;SDS011;54551;51.068;5.826;2023-03-14T02:15:58;10.07;;;2.83;;
67751;SDS011;54551;51.068;5.826;2023-03-14T02:18:43;6.83;;;1.97;;
67751;SDS011;54551;51.068;5.826;2023-03-14T02:21:20;8.50;;;2.27;;
67751;SDS011;54551;51.068;5.826;2023-03-14T02:26:26;6.67;;;2.13;;
67751;SDS011;54551;51.068;5.826;2023-03-14T02:28:55;7.10;;;2.20;;
67751;SDS011;54551;51.068;5.826;2023-03-14T02:31:21;9.37;;;2.30;;
67751;SDS011;54551;51.068;5.826;2023-03-14T02:33:48;8.83;;;2.33;;
67751;SDS011;54551;51.068;5.826;2023-03-14T02:36:16;8.73;;;2.60;;
67751;SDS011;54551;51.068;5.826;2023-03-14T02:38:51;7.70;;;2.37;;
67751;SDS011;54551;51.068;5.826;2023-03-14T02:41:41;9.10;;;2.67;;
67751;SDS011;54551;51.068;5.826;2023-03-14T02:44:07;8.40;;;2.33;;
67751;SDS011;54551;51.068;5.826;2023-03-14T02:46:33;11.83;;;2.80;;
67751;SDS011;54551;51.068;5.826;2023-03-14T02:49:18;8.53;;;2.67;;
67751;SDS011;54551;51.068;5.826;2023-03-14T02:51:44;7.40;;;2.20;;
67751;SDS011;54551;51.068;5.826;2023-03-14T02:54:11;8.10;;;2.00;;
67751;SDS011;54551;51.068;5.826;2023-03-14T02:56:39;10.30;;;2.73;;
67751;SDS011;54551;51.068;5.826;2023-03-14T02:59:06;10.87;;;2.57;;
67751;SDS011;54551;51.068;5.826;2023-03-14T03:01:44;12.87;;;3.03;;
67751;SDS011;54551;51.068;5.826;2023-03-14T03:04:10;6.40;;;1.93;;
67751;SDS011;54551;51.068;5.826;2023-03-14T03:06:36;13.13;;;3.10;;
67751;SDS011;54551;51.068;5.826;2023-03-14T03:09:02;16.77;;;3.30;;
67751;SDS011;54551;51.068;5.826;2023-03-14T03:11:28;12.83;;;2.80;;
67751;SDS011;54551;51.068;5.826;2023-03-14T03:13:54;12.17;;;3.00;;
67751;SDS011;54551;51.068;5.826;2023-03-14T03:16:21;9.33;;;2.60;;
67751;SDS011;54551;51.068;5.826;2023-03-14T03:18:46;9.97;;;2.43;;
67751;SDS011;54551;51.068;5.826;2023-03-14T03:21:12;9.00;;;2.23;;
67751;SDS011;54551;51.068;5.826;2023-03-14T03:23:39;9.20;;;2.13;;
67751;SDS011;54551;51.068;5.826;2023-03-14T03:26:05;8.53;;;2.20;;
67751;SDS011;54551;51.068;5.826;2023-03-14T03:28:31;6.90;;;2.40;;
67751;SDS011;54551;51.068;5.826;2023-03-14T03:30:58;7.67;;;2.00;;
67751;SDS011;54551;51.068;5.826;2023-03-14T03:33:24;7.33;;;2.10;;
67751;SDS011;54551;51.068;5.826;2023-03-14T03:35:50;11.00;;;2.43;;
67751;SDS011;54551;51.068;5.826;2023-03-14T03:38:30;12.13;;;2.60;;
67751;SDS011;54551;51.068;5.826;2023-03-14T03:41:01;10.40;;;2.17;;
67751;SDS011;54551;51.068;5.826;2023-03-14T03:43:28;9.97;;;2.30;;
67751;SDS011;54551;51.068;5.826;2023-03-14T03:45:56;10.87;;;2.73;;
67751;SDS011;54551;51.068;5.826;2023-03-14T03:48:22;7.47;;;2.60;;
67751;SDS011;54551;51.068;5.826;2023-03-14T03:50:48;3.57;;;1.70;;
67751;SDS011;54551;51.068;5.826;2023-03-14T03:53:18;7.93;;;2.23;;
67751;SDS011;54551;51.068;5.826;2023-03-14T03:55:44;4.33;;;1.30;;
67751;SDS011;54551;51.068;5.826;2023-03-14T03:58:10;6.23;;;1.63;;
67751;SDS011;54551;51.068;5.826;2023-03-14T04:00:36;6.27;;;1.37;;
67751;SDS011;54551;51.068;5.826;2023-03-14T04:03:02;4.40;;;1.20;;
67751;SDS011;54551;51.068;5.826;2023-03-14T04:05:28;3.57;;;1.63;;
67751;SDS011;54551;51.068;5.826;2023-03-14T04:08:00;3.23;;;1.50;;
67751;SDS011;54551;51.068;5.826;2023-03-14T04:10:28;9.57;;;2.27;;
67751;SDS011;54551;51.068;5.826;2023-03-14T04:13:03;6.13;;;2.10;;
67751;SDS011;54551;51.068;5.826;2023-03-14T04:15:31;10.43;;;3.00;;
67751;SDS011;54551;51.068;5.826;2023-03-14T04:18:01;8.53;;;2.80;;
67751;SDS011;54551;51.068;5.826;2023-03-14T04:20:27;8.70;;;2.93;;
67751;SDS011;54551;51.068;5.826;2023-03-14T04:22:54;8.57;;;2.63;;
67751;SDS011;54551;51.068;5.826;2023-03-14T04:25:19;7.57;;;3.10;;
67751;SDS011;54551;51.068;5.826;2023-03-14T04:27:50;8.27;;;2.80;;
67751;SDS011;54551;51.068;5.826;2023-03-14T04:30:21;9.67;;;3.17;;
67751;SDS011;54551;51.068;5.826;2023-03-14T04:32:57;9.87;;;3.03;;
67751;SDS011;54551;51.068;5.826;2023-03-14T04:35:25;12.03;;;3.40;;
67751;SDS011;54551;51.068;5.826;2023-03-14T04:37:55;7.07;;;2.53;;
67751;SDS011;54551;51.068;5.826;2023-03-14T04:40:22;6.83;;;2.30;;
67751;SDS011;54551;51.068;5.826;2023-03-14T04:42:50;5.53;;;2.50;;
67751;SDS011;54551;51.068;5.826;2023-03-14T04:45:17;7.13;;;2.70;;
67751;SDS011;54551;51.068;5.826;2023-03-14T04:47:43;7.13;;;2.37;;
67751;SDS011;54551;51.068;5.826;2023-03-14T04:50:12;6.37;;;2.00;;
67751;SDS011;54551;51.068;5.826;2023-03-14T04:52:38;4.07;;;2.10;;
67751;SDS011;54551;51.068;5.826;2023-03-14T04:55:04;4.57;;;2.03;;
67751;SDS011;54551;51.068;5.826;2023-03-14T04:57:31;4.77;;;1.73;;
67751;SDS011;54551;51.068;5.826;2023-03-14T04:59:58;4.43;;;1.70;;
67751;SDS011;54551;51.068;5.826;2023-03-14T05:02:42;4.70;;;2.23;;
67751;SDS011;54551;51.068;5.826;2023-03-14T05:05:21;4.97;;;2.80;;
67751;SDS011;54551;51.068;5.826;2023-03-14T05:08:05;5.97;;;3.20;;
67751;SDS011;54551;51.068;5.826;2023-03-14T05:10:40;4.53;;;3.73;;
67751;SDS011;54551;51.068;5.826;2023-03-14T05:13:15;4.97;;;3.73;;
67751;SDS011;54551;51.068;5.826;2023-03-14T05:15:53;3.80;;;3.37;;
67751;SDS011;54551;51.068;5.826;2023-03-14T05:18:40;3.77;;;2.70;;
67751;SDS011;54551;51.068;5.826;2023-03-14T05:21:23;4.13;;;2.27;;
67751;SDS011;54551;51.068;5.826;2023-03-14T05:24:25;2.43;;;2.00;;
67751;SDS011;54551;51.068;5.826;2023-03-14T05:27:26;3.03;;;1.63;;
67751;SDS011;54551;51.068;5.826;2023-03-14T05:30:31;1.77;;;1.10;;
67751;SDS011;54551;51.068;5.826;2023-03-14T05:33:36;2.83;;;1.33;;
67751;SDS011;54551;51.068;5.826;2023-03-14T05:36:31;4.33;;;1.40;;
67751;SDS011;54551;51.068;5.826;2023-03-14T05:39:23;1.43;;;1.10;;
67751;SDS011;54551;51.068;5.826;2023-03-14T05:41:52;3.03;;;1.40;;
67751;SDS011;54551;51.068;5.826;2023-03-14T05:44:43;2.27;;;1.33;;
67751;SDS011;54551;51.068;5.826;2023-03-14T05:47:16;3.80;;;1.40;;
67751;SDS011;54551;51.068;5.826;2023-03-14T05:49:51;1.73;;;1.30;;
67751;SDS011;54551;51.068;5.826;2023-03-14T05:52:31;1.80;;;1.60;;
67751;SDS011;54551;51.068;5.826;2023-03-14T05:55:23;1.53;;;1.43;;
67751;SDS011;54551;51.068;5.826;2023-03-14T05:58:03;2.00;;;1.60;;
67751;SDS011;54551;51.068;5.826;2023-03-14T06:00:40;2.17;;;1.67;;
67751;SDS011;54551;51.068;5.826;2023-03-14T06:03:23;2.63;;;1.50;;
67751;SDS011;54551;51.068;5.826;2023-03-14T06:05:50;1.90;;;1.37;;
67751;SDS011;54551;51.068;5.826;2023-03-14T06:08:17;1.57;;;1.30;;
67751;SDS011;54551;51.068;5.826;2023-03-14T06:10:44;1.53;;;1.20;;
67751;SDS011;54551;51.068;5.826;2023-03-14T06:13:11;3.43;;;1.30;;
67751;SDS011;54551;51.068;5.826;2023-03-14T06:15:37;2.70;;;1.53;;
67751;SDS011;54551;51.068;5.826;2023-03-14T06:18:03;2.83;;;1.13;;
67751;SDS011;54551;51.068;5.826;2023-03-14T06:20:30;1.77;;;1.10;;
67751;SDS011;54551;51.068;5.826;2023-03-14T06:22:57;3.57;;;1.40;;
67751;SDS011;54551;51.068;5.826;2023-03-14T06:25:22;2.20;;;1.27;;
67751;SDS011;54551;51.068;5.826;2023-03-14T06:27:49;2.60;;;1.40;;
67751;SDS011;54551;51.068;5.826;2023-03-14T06:30:16;1.87;;;1.27;;
67751;SDS011;54551;51.068;5.826;2023-03-14T06:32:42;1.60;;;1.40;;
67751;SDS011;54551;51.068;5.826;2023-03-14T06:35:11;2.60;;;1.30;;
67751;SDS011;54551;51.068;5.826;2023-03-14T06:37:40;2.27;;;1.23;;
67751;SDS011;54551;51.068;5.826;2023-03-14T06:40:07;3.53;;;1.40;;
67751;SDS011;54551;51.068;5.826;2023-03-14T06:42:47;1.50;;;1.10;;
67751;SDS011;54551;51.068;5.826;2023-03-14T06:45:15;2.47;;;1.17;;
67751;SDS011;54551;51.068;5.826;2023-03-14T06:47:41;2.37;;;1.50;;
67751;SDS011;54551;51.068;5.826;2023-03-14T06:50:08;1.33;;;1.20;;
67751;SDS011;54551;51.068;5.826;2023-03-14T06:52:35;1.33;;;1.23;;
67751;SDS011;54551;51.068;5.826;2023-03-14T06:55:01;1.70;;;1.40;;
67751;SDS011;54551;51.068;5.826;2023-03-14T06:57:28;3.10;;;1.50;;
67751;SDS011;54551;51.068;5.826;2023-03-14T06:59:54;1.67;;;1.47;;
67751;SDS011;54551;51.068;5.826;2023-03-14T07:02:20;3.43;;;1.40;;
67751;SDS011;54551;51.068;5.826;2023-03-14T07:04:48;1.40;;;1.30;;
67751;SDS011;54551;51.068;5.826;2023-03-14T07:07:15;2.43;;;1.50;;
67751;SDS011;54551;51.068;5.826;2023-03-14T07:09:41;1.70;;;1.60;;
67751;SDS011;54551;51.068;5.826;2023-03-14T07:12:08;2.27;;;1.60;;
67751;SDS011;54551;51.068;5.826;2023-03-14T07:14:33;3.03;;;1.70;;
67751;SDS011;54551;51.068;5.826;2023-03-14T07:17:00;2.50;;;1.57;;
67751;SDS011;54551;51.068;5.826;2023-03-14T07:19:26;3.90;;;1.57;;
67751;SDS011;54551;51.068;5.826;2023-03-14T07:21:51;2.67;;;1.60;;
67751;SDS011;54551;51.068;5.826;2023-03-14T07:24:22;3.70;;;1.93;;
67751;SDS011;54551;51.068;5.826;2023-03-14T07:26:48;2.30;;;1.90;;
67751;SDS011;54551;51.068;5.826;2023-03-14T07:29:14;2.10;;;1.90;;
67751;SDS011;54551;51.068;5.826;2023-03-14T07:31:41;2.20;;;2.00;;
67751;SDS011;54551;51.068;5.826;2023-03-14T07:34:07;3.63;;;2.20;;
67751;SDS011;54551;51.068;5.826;2023-03-14T07:36:37;4.90;;;2.43;;
67751;SDS011;54551;51.068;5.826;2023-03-14T07:39:03;3.93;;;2.67;;
67751;SDS011;54551;51.068;5.826;2023-03-14T07:41:52;5.50;;;2.47;;
67751;SDS011;54551;51.068;5.826;2023-03-14T07:44:38;4.90;;;2.33;;
67751;SDS011;54551;51.068;5.826;2023-03-14T07:47:04;3.73;;;2.73;;
67751;SDS011;54551;51.068;5.826;2023-03-14T07:49:30;5.70;;;2.90;;
67751;SDS011;54551;51.068;5.826;2023-03-14T07:51:56;3.33;;;2.70;;
67751;SDS011;54551;51.068;5.826;2023-03-14T07:54:22;5.13;;;2.93;;
67751;SDS011;54551;51.068;5.826;2023-03-14T07:56:48;3.10;;;2.00;;
67751;SDS011;54551;51.068;5.826;2023-03-14T07:59:14;2.90;;;1.70;;
67751;SDS011;54551;51.068;5.826;2023-03-14T08:01:40;4.10;;;1.83;;
67751;SDS011;54551;51.068;5.826;2023-03-14T08:04:06;3.43;;;1.80;;
67751;SDS011;54551;51.068;5.826;2023-03-14T08:06:32;2.00;;;1.57;;
67751;SDS011;54551;51.068;5.826;2023-03-14T08:08:59;3.03;;;1.37;;
67751;SDS011;54551;51.068;5.826;2023-03-14T08:11:25;2.37;;;1.30;;
67751;SDS011;54551;51.068;5.826;2023-03-14T08:13:51;2.27;;;1.30;;
67751;SDS011;54551;51.068;5.826;2023-03-14T08:16:17;1.33;;;0.90;;
67751;SDS011;54551;51.068;5.826;2023-03-14T08:18:44;2.87;;;0.90;;
67751;SDS011;54551;51.068;5.826;2023-03-14T08:21:10;0.60;;;0.60;;
67751;SDS011;54551;51.068;5.826;2023-03-14T08:23:37;1.10;;;0.70;;
67751;SDS011;54551;51.068;5.826;2023-03-14T08:26:03;1.97;;;0.70;;
67751;SDS011;54551;51.068;5.826;2023-03-14T08:28:29;1.63;;;0.60;;
67751;SDS011;54551;51.068;5.826;2023-03-14T08:30:57;0.50;;;0.50;;
67751;SDS011;54551;51.068;5.826;2023-03-14T08:33:24;1.43;;;0.80;;
67751;SDS011;54551;51.068;5.826;2023-03-14T08:35:54;0.90;;;0.90;;
67751;SDS011;54551;51.068;5.826;2023-03-14T08:38:21;1.23;;;1.10;;
67751;SDS011;54551;51.068;5.826;2023-03-14T08:40:47;1.40;;;1.13;;
67751;SDS011;54551;51.068;5.826;2023-03-14T08:43:15;1.53;;;1.20;;
67751;SDS011;54551;51.068;5.826;2023-03-14T08:45:41;2.73;;;1.20;;
67751;SDS011;54551;51.068;5.826;2023-03-14T08:48:07;2.00;;;1.20;;
67751;SDS011;54551;51.068;5.826;2023-03-14T08:50:33;3.43;;;1.50;;
67751;SDS011;54551;51.068;5.826;2023-03-14T08:52:58;2.20;;;1.73;;
67751;SDS011;54551;51.068;5.826;2023-03-14T08:55:26;2.40;;;1.30;;
67751;SDS011;54551;51.068;5.826;2023-03-14T08:57:54;1.63;;;1.27;;
67751;SDS011;54551;51.068;5.826;2023-03-14T09:00:21;1.70;;;1.30;;
67751;SDS011;54551;51.068;5.826;2023-03-14T09:02:47;1.40;;;1.17;;
67751;SDS011;54551;51.068;5.826;2023-03-14T09:05:13;2.73;;;1.53;;
67751;SDS011;54551;51.068;5.826;2023-03-14T09:07:39;2.10;;;1.30;;
67751;SDS011;54551;51.068;5.826;2023-03-14T09:10:06;2.73;;;1.60;;
67751;SDS011;54551;51.068;5.826;2023-03-14T09:12:33;3.03;;;1.57;;
67751;SDS011;54551;51.068;5.826;2023-03-14T09:14:59;2.13;;;1.93;;
67751;SDS011;54551;51.068;5.826;2023-03-14T09:17:25;3.00;;;2.10;;
67751;SDS011;54551;51.068;5.826;2023-03-14T09:19:51;2.40;;;2.17;;
67751;SDS011;54551;51.068;5.826;2023-03-14T09:22:17;2.80;;;2.60;;
67751;SDS011;54551;51.068;5.826;2023-03-14T09:24:43;3.20;;;2.50;;
67751;SDS011;54551;51.068;5.826;2023-03-14T09:27:08;6.43;;;2.67;;
67751;SDS011;54551;51.068;5.826;2023-03-14T09:29:34;3.13;;;2.40;;
67751;SDS011;54551;51.068;5.826;2023-03-14T09:32:00;3.00;;;2.13;;
67751;SDS011;54551;51.068;5.826;2023-03-14T09:34:26;1.60;;;1.40;;
67751;SDS011;54551;51.068;5.826;2023-03-14T09:36:52;2.33;;;1.10;;
67751;SDS011;54551;51.068;5.826;2023-03-14T09:39:18;1.97;;;1.07;;
67751;SDS011;54551;51.068;5.826;2023-03-14T09:41:46;1.83;;;1.20;;
67751;SDS011;54551;51.068;5.826;2023-03-14T09:46:44;2.37;;;1.40;;
67751;SDS011;54551;51.068;5.826;2023-03-14T09:49:17;3.33;;;1.17;;
67751;SDS011;54551;51.068;5.826;2023-03-14T09:51:55;5.30;;;1.40;;
67751;SDS011;54551;51.068;5.826;2023-03-14T09:56:51;2.50;;;1.20;;
67751;SDS011;54551;51.068;5.826;2023-03-14T09:59:18;1.60;;;0.83;;
67751;SDS011;54551;51.068;5.826;2023-03-14T10:01:45;2.40;;;0.97;;
67751;SDS011;54551;51.068;5.826;2023-03-14T10:04:12;2.40;;;0.90;;
67751;SDS011;54551;51.068;5.826;2023-03-14T10:06:42;1.40;;;1.20;;
67751;SDS011;54551;51.068;5.826;2023-03-14T10:09:11;1.93;;;1.00;;
67751;SDS011;54551;51.068;5.826;2023-03-14T10:11:56;2.13;;;1.10;;
67751;SDS011;54551;51.068;5.826;2023-03-14T10:14:30;2.03;;;1.10;;
67751;SDS011;54551;51.068;5.826;2023-03-14T10:17:17;2.47;;;1.43;;
67751;SDS011;54551;51.068;5.826;2023-03-14T10:19:51;3.57;;;1.00;;
67751;SDS011;54551;51.068;5.826;2023-03-14T10:22:23;2.07;;;0.90;;
67751;SDS011;54551;51.068;5.826;2023-03-14T10:24:52;3.97;;;1.10;;
67751;SDS011;54551;51.068;5.826;2023-03-14T10:27:22;4.23;;;1.60;;
67751;SDS011;54551;51.068;5.826;2023-03-14T10:29:54;1.93;;;1.50;;
67751;SDS011;54551;51.068;5.826;2023-03-14T10:32:23;4.97;;;1.80;;
67751;SDS011;54551;51.068;5.826;2023-03-14T10:35:07;2.57;;;2.00;;
67751;SDS011;54551;51.068;5.826;2023-03-14T10:40:30;4.70;;;2.10;;
67751;SDS011;54551;51.068;5.826;2023-03-14T10:43:00;4.20;;;2.20;;
67751;SDS011;54551;51.068;5.826;2023-03-14T10:45:31;3.60;;;2.03;;
67751;SDS011;54551;51.068;5.826;2023-03-14T10:47:59;2.50;;;1.87;;
67751;SDS011;54551;51.068;5.826;2023-03-14T10:50:32;4.97;;;2.53;;
67751;SDS011;54551;51.068;5.826;2023-03-14T10:53:01;7.87;;;2.60;;
67751;SDS011;54551;51.068;5.826;2023-03-14T10:55:41;1.40;;;1.10;;
67751;SDS011;54551;51.068;5.826;2023-03-14T10:58:42;2.47;;;1.10;;
67751;SDS011;54551;51.068;5.826;2023-03-14T11:09:24;1.30;;;0.80;;
67751;SDS011;54551;51.068;5.826;2023-03-14T11:11:52;1.50;;;0.90;;
67751;SDS011;54551;51.068;5.826;2023-03-14T11:19:53;1.53;;;1.13;;
67751;SDS011;54551;51.068;5.826;2023-03-14T11:22:51;1.63;;;1.00;;
67751;SDS011;54551;51.068;5.826;2023-03-14T11:28:19;4.07;;;1.23;;
67751;SDS011;54551;51.068;5.826;2023-03-14T11:30:54;3.33;;;0.93;;
67751;SDS011;54551;51.068;5.826;2023-03-14T11:33:26;2.50;;;1.10;;
67751;SDS011;54551;51.068;5.826;2023-03-14T11:38:41;1.70;;;1.20;;
67751;SDS011;54551;51.068;5.826;2023-03-14T11:41:17;2.30;;;1.20;;
67751;SDS011;54551;51.068;5.826;2023-03-14T11:43:59;2.03;;;1.10;;
67751;SDS011;54551;51.068;5.826;2023-03-14T11:46:32;3.27;;;1.20;;
67751;SDS011;54551;51.068;5.826;2023-03-14T11:51:39;4.17;;;2.10;;
67751;SDS011;54551;51.068;5.826;2023-03-14T11:57:23;9.23;;;2.37;;
67751;SDS011;54551;51.068;5.826;2023-03-14T12:02:30;6.17;;;2.00;;
67751;SDS011;54551;51.068;5.826;2023-03-14T12:10:54;8.03;;;2.27;;
67751;SDS011;54551;51.068;5.826;2023-03-14T12:13:27;7.07;;;2.07;;
67751;SDS011;54551;51.068;5.826;2023-03-14T12:16:00;9.20;;;2.60;;
67751;SDS011;54551;51.068;5.826;2023-03-14T12:18:30;6.47;;;1.90;;
67751;SDS011;54551;51.068;5.826;2023-03-14T12:20:59;8.77;;;2.30;;
67751;SDS011;54551;51.068;5.826;2023-03-14T12:23:28;9.83;;;2.13;;
67751;SDS011;54551;51.068;5.826;2023-03-14T12:26:13;8.60;;;2.23;;
67751;SDS011;54551;51.068;5.826;2023-03-14T12:34:04;8.50;;;2.40;;
67751;SDS011;54551;51.068;5.826;2023-03-14T12:44:47;9.60;;;2.27;;
67751;SDS011;54551;51.068;5.826;2023-03-14T12:49:47;9.90;;;3.07;;
67751;SDS011;54551;51.068;5.826;2023-03-14T12:55:10;13.43;;;2.70;;
67751;SDS011;54551;51.068;5.826;2023-03-14T13:00:51;9.83;;;2.73;;
67751;SDS011;54551;51.068;5.826;2023-03-14T13:03:23;12.80;;;2.87;;
67751;SDS011;54551;51.068;5.826;2023-03-14T13:08:36;13.17;;;3.23;;
67751;SDS011;54551;51.068;5.826;2023-03-14T13:11:09;17.20;;;3.80;;
67751;SDS011;54551;51.068;5.826;2023-03-14T13:13:41;15.47;;;3.63;;
67751;SDS011;54551;51.068;5.826;2023-03-14T13:16:18;14.27;;;3.30;;
67751;SDS011;54551;51.068;5.826;2023-03-14T13:18:47;11.90;;;3.73;;
67751;SDS011;54551;51.068;5.826;2023-03-14T13:21:18;13.70;;;2.90;;
67751;SDS011;54551;51.068;5.826;2023-03-14T13:24:00;13.27;;;3.43;;
67751;SDS011;54551;51.068;5.826;2023-03-14T13:29:20;16.67;;;3.50;;
67751;SDS011;54551;51.068;5.826;2023-03-14T13:31:53;11.07;;;3.20;;
67751;SDS011;54551;51.068;5.826;2023-03-14T13:34:25;15.57;;;3.80;;
67751;SDS011;54551;51.068;5.826;2023-03-14T13:36:53;12.47;;;3.33;;
67751;SDS011;54551;51.068;5.826;2023-03-14T13:39:20;18.80;;;3.73;;
67751;SDS011;54551;51.068;5.826;2023-03-14T13:41:51;8.73;;;3.47;;
67751;SDS011;54551;51.068;5.826;2023-03-14T13:44:22;14.40;;;4.60;;
67751;SDS011;54551;51.068;5.826;2023-03-14T13:46:59;10.60;;;3.47;;
67751;SDS011;54551;51.068;5.826;2023-03-14T13:49:26;14.00;;;3.57;;
67751;SDS011;54551;51.068;5.826;2023-03-14T13:51:56;13.17;;;3.53;;
67751;SDS011;54551;51.068;5.826;2023-03-14T13:54:22;9.53;;;2.43;;
67751;SDS011;54551;51.068;5.826;2023-03-14T13:56:58;16.30;;;3.90;;
67751;SDS011;54551;51.068;5.826;2023-03-14T13:59:27;16.63;;;3.50;;
67751;SDS011;54551;51.068;5.826;2023-03-14T14:01:54;12.33;;;3.87;;
67751;SDS011;54551;51.068;5.826;2023-03-14T14:04:22;10.70;;;3.10;;
67751;SDS011;54551;51.068;5.826;2023-03-14T14:06:55;14.97;;;3.43;;
67751;SDS011;54551;51.068;5.826;2023-03-14T14:09:38;14.30;;;3.50;;
67751;SDS011;54551;51.068;5.826;2023-03-14T14:12:13;16.17;;;3.80;;
67751;SDS011;54551;51.068;5.826;2023-03-14T14:14:52;10.40;;;3.70;;
67751;SDS011;54551;51.068;5.826;2023-03-14T14:20:11;11.77;;;3.40;;
67751;SDS011;54551;51.068;5.826;2023-03-14T14:22:45;19.27;;;3.67;;
67751;SDS011;54551;51.068;5.826;2023-03-14T14:25:14;16.70;;;3.60;;
67751;SDS011;54551;51.068;5.826;2023-03-14T14:27:42;10.10;;;3.23;;
67751;SDS011;54551;51.068;5.826;2023-03-14T14:32:44;14.50;;;3.87;;
67751;SDS011;54551;51.068;5.826;2023-03-14T14:35:24;13.17;;;3.23;;
67751;SDS011;54551;51.068;5.826;2023-03-14T14:37:58;10.60;;;2.93;;
67751;SDS011;54551;51.068;5.826;2023-03-14T14:40:26;15.43;;;3.13;;
67751;SDS011;54551;51.068;5.826;2023-03-14T14:42:53;12.90;;;3.53;;
67751;SDS011;54551;51.068;5.826;2023-03-14T14:45:27;11.83;;;2.97;;
67751;SDS011;54551;51.068;5.826;2023-03-14T14:48:14;12.10;;;2.63;;
67751;SDS011;54551;51.068;5.826;2023-03-14T14:51:01;12.43;;;3.00;;
67751;SDS011;54551;51.068;5.826;2023-03-14T14:53:40;11.93;;;2.90;;
67751;SDS011;54551;51.068;5.826;2023-03-14T14:56:28;11.57;;;2.53;;
67751;SDS011;54551;51.068;5.826;2023-03-14T14:58:58;7.27;;;2.37;;
67751;SDS011;54551;51.068;5.826;2023-03-14T15:01:37;10.10;;;2.80;;
67751;SDS011;54551;51.068;5.826;2023-03-14T15:04:09;9.10;;;2.67;;
67751;SDS011;54551;51.068;5.826;2023-03-14T15:06:38;8.23;;;2.17;;
67751;SDS011;54551;51.068;5.826;2023-03-14T15:09:08;6.43;;;2.17;;
67751;SDS011;54551;51.068;5.826;2023-03-14T15:11:36;9.30;;;2.93;;
67751;SDS011;54551;51.068;5.826;2023-03-14T15:14:02;10.13;;;2.67;;
67751;SDS011;54551;51.068;5.826;2023-03-14T15:16:29;6.90;;;2.03;;
67751;SDS011;54551;51.068;5.826;2023-03-14T15:18:58;12.07;;;5.33;;
67751;SDS011;54551;51.068;5.826;2023-03-14T15:21:26;5.90;;;2.43;;
67751;SDS011;54551;51.068;5.826;2023-03-14T15:23:53;8.43;;;2.20;;
67751;SDS011;54551;51.068;5.826;2023-03-14T15:26:21;5.87;;;1.93;;
67751;SDS011;54551;51.068;5.826;2023-03-14T15:28:48;8.83;;;2.73;;
67751;SDS011;54551;51.068;5.826;2023-03-14T15:31:15;11.83;;;5.00;;
67751;SDS011;54551;51.068;5.826;2023-03-14T15:33:43;7.87;;;2.10;;
67751;SDS011;54551;51.068;5.826;2023-03-14T15:36:29;7.47;;;2.50;;
67751;SDS011;54551;51.068;5.826;2023-03-14T15:38:57;8.47;;;2.60;;
67751;SDS011;54551;51.068;5.826;2023-03-14T15:41:24;7.70;;;2.50;;
67751;SDS011;54551;51.068;5.826;2023-03-14T15:43:51;9.20;;;2.67;;
67751;SDS011;54551;51.068;5.826;2023-03-14T15:46:17;7.33;;;2.37;;
67751;SDS011;54551;51.068;5.826;2023-03-14T15:48:46;8.23;;;2.90;;
67751;SDS011;54551;51.068;5.826;2023-03-14T15:51:13;11.20;;;4.13;;
67751;SDS011;54551;51.068;5.826;2023-03-14T15:53:40;9.40;;;2.80;;
67751;SDS011;54551;51.068;5.826;2023-03-14T15:56:12;11.30;;;5.10;;
67751;SDS011;54551;51.068;5.826;2023-03-14T15:58:40;11.37;;;4.70;;
67751;SDS011;54551;51.068;5.826;2023-03-14T16:01:06;11.47;;;5.63;;
67751;SDS011;54551;51.068;5.826;2023-03-14T16:03:34;10.13;;;2.80;;
67751;SDS011;54551;51.068;5.826;2023-03-14T16:06:01;9.37;;;2.60;;
67751;SDS011;54551;51.068;5.826;2023-03-14T16:08:27;9.13;;;2.60;;
67751;SDS011;54551;51.068;5.826;2023-03-14T16:10:56;5.03;;;2.00;;
67751;SDS011;54551;51.068;5.826;2023-03-14T16:13:23;8.37;;;2.57;;
67751;SDS011;54551;51.068;5.826;2023-03-14T16:15:54;6.47;;;1.97;;
67751;SDS011;54551;51.068;5.826;2023-03-14T16:18:24;5.73;;;1.70;;
67751;SDS011;54551;51.068;5.826;2023-03-14T16:20:59;7.13;;;2.23;;
67751;SDS011;54551;51.068;5.826;2023-03-14T16:23:27;5.50;;;2.17;;